Time;durP1;ratioP1;P1;durP2;ratioP2;P2;SDS_P1;SDS_P2;PMS_P1;PMS_P2;Temp;Humidity;BMP_temperature;BMP_pressure;BME280_temperature;BME280_humidity;BME280_pressure;Samples;Min_cycle;Max_cycle;Signal;HPM_P1;HPM_P2
2022/10/30 00:01:03;;;;;;;41.00;17.23;;;;;;;13.90;72.13;101293.06;4892765;29;20057;-70
2022/10/30 00:03:30;;;;;;;33.33;17.67;;;;;;;13.97;71.95;101285.13;4896079;29;20059;-69
2022/10/30 00:05:56;;;;;;;38.05;18.90;;;;;;;14.01;71.90;101299.97;4895693;29;20117;-68
2022/10/30 00:08:26;;;;;;;45.33;17.90;;;;;;;14.19;70.99;101291.72;4894547;29;20053;-69
2022/10/30 00:10:53;;;;;;;43.30;18.08;;;;;;;14.10;71.16;101296.25;4888938;29;20052;-68
2022/10/30 00:13:20;;;;;;;34.58;17.50;;;;;;;14.13;71.19;101284.28;4895374;29;20061;-69
2022/10/30 00:15:49;;;;;;;39.50;16.55;;;;;;;14.19;70.72;101284.47;4894704;29;20032;-69
2022/10/30 00:18:16;;;;;;;35.90;17.35;;;;;;;14.27;70.36;101281.75;4894966;29;20052;-67
2022/10/30 00:20:42;;;;;;;41.95;18.17;;;;;;;14.15;70.74;101283.13;4893628;29;20049;-68
2022/10/30 00:23:09;;;;;;;38.03;17.67;;;;;;;14.11;70.79;101281.75;4902948;29;20051;-67
2022/10/30 00:25:35;;;;;;;34.95;17.88;;;;;;;14.04;70.79;101268.09;4893656;29;20049;-67
2022/10/30 00:28:04;;;;;;;33.92;17.60;;;;;;;14.06;70.77;101267.94;4875285;29;20059;-69
2022/10/30 00:30:33;;;;;;;36.25;17.60;;;;;;;13.98;70.90;101270.66;4873588;29;20049;-70
2022/10/30 00:33:00;;;;;;;40.75;17.80;;;;;;;14.02;70.75;101272.00;4875255;29;20053;-69
2022/10/30 00:35:27;;;;;;;32.85;16.27;;;;;;;14.10;70.51;101276.53;4874987;29;20085;-68
2022/10/30 00:37:53;;;;;;;38.58;16.17;;;;;;;14.17;70.16;101281.06;4874569;29;20053;-70
2022/10/30 00:40:20;;;;;;;36.85;17.30;;;;;;;14.18;70.09;101277.34;4875365;29;20065;-68
2022/10/30 00:42:47;;;;;;;34.13;16.75;;;;;;;14.17;70.10;101275.69;4874369;29;20060;-69
2022/10/30 00:45:15;;;;;;;34.63;17.20;;;;;;;14.13;70.12;101276.19;4874227;29;20051;-68
2022/10/30 00:47:45;;;;;;;31.90;17.42;;;;;;;13.95;70.73;101273.69;4873236;29;20049;-67
2022/10/30 00:50:21;;;;;;;38.17;17.80;;;;;;;14.00;70.55;101279.41;4880282;29;20048;-68
2022/10/30 00:52:51;;;;;;;31.73;17.00;;;;;;;13.93;70.79;101267.59;4893782;29;20048;-68
2022/10/30 00:55:36;;;;;;;40.00;18.35;;;;;;;13.89;70.79;101264.41;4891442;29;20055;-67
2022/10/30 00:58:06;;;;;;;41.38;18.30;;;;;;;13.99;70.53;101256.16;4887148;29;20049;-68
2022/10/30 01:00:35;;;;;;;39.63;17.63;;;;;;;13.83;70.94;101252.41;4897261;29;20054;-68
2022/10/30 01:03:02;;;;;;;38.70;18.45;;;;;;;13.68;71.29;101248.69;4891294;29;20501;-62
2022/10/30 01:09:09;;;;;;;41.58;18.00;;;;;;;13.51;72.13;101253.22;4865074;29;20063;-63
2022/10/30 01:11:36;;;;;;;38.85;19.23;;;;;;;13.56;71.98;101245.50;4878909;29;20071;-64
2022/10/30 01:14:07;;;;;;;38.15;18.23;;;;;;;13.55;71.96;101245.66;4878897;29;20467;-64
2022/10/30 01:17:07;;;;;;;45.30;17.83;;;;;;;13.53;72.16;101242.28;4878954;29;20517;-64
2022/10/30 01:19:42;;;;;;;35.88;18.75;;;;;;;13.68;71.59;101253.25;4878158;29;20297;-63
2022/10/30 01:22:36;;;;;;;41.72;20.00;;;;;;;13.75;71.12;101252.41;4878124;29;20057;-62
2022/10/30 01:25:35;;;;;;;36.28;18.05;;;;;;;13.73;71.22;101240.09;4876172;29;20053;-63
2022/10/30 01:28:31;;;;;;;33.92;18.40;;;;;;;13.65;71.37;101232.00;4878516;29;20391;-63
2022/10/30 01:31:20;;;;;;;41.10;19.63;;;;;;;13.60;71.34;101237.91;4878596;29;20059;-63
2022/10/30 01:34:21;;;;;;;47.22;19.85;;;;;;;13.67;71.14;101246.19;4878452;29;20052;-64
2022/10/30 01:37:00;;;;;;;40.38;18.48;;;;;;;13.69;70.94;101244.97;4866713;29;20050;-63
2022/10/30 01:39:31;;;;;;;42.28;19.92;;;;;;;13.59;71.13;101247.00;4859734;29;20049;-63
2022/10/30 01:41:58;;;;;;;45.13;18.60;;;;;;;13.50;71.49;101248.84;4860014;29;20057;-63
2022/10/30 01:44:30;;;;;;;36.72;18.83;;;;;;;13.51;71.38;101241.59;4860107;29;20048;-65
2022/10/30 01:47:27;;;;;;;38.88;19.92;;;;;;;13.59;70.92;101236.22;4859453;29;20061;-63
2022/10/30 01:50:00;;;;;;;42.28;20.15;;;;;;;13.58;70.80;101229.97;4859597;29;20042;-62
2022/10/30 01:52:40;;;;;;;32.53;19.92;;;;;;;13.16;72.68;101223.88;4859615;29;20583;-64
2022/10/30 01:55:29;;;;;;;38.97;19.95;;;;;;;13.35;72.06;101220.84;4859558;29;20073;-63
2022/10/30 01:58:18;;;;;;;36.78;19.73;;;;;;;13.28;72.04;101214.44;4859714;29;20053;-64
2022/10/30 02:00:51;;;;;;;40.42;18.67;;;;;;;13.25;72.26;101214.78;4859302;29;20141;-62
2022/10/30 02:03:18;;;;;;;44.22;19.45;;;;;;;13.23;72.41;101219.50;4859492;29;20572;-63
2022/10/30 02:05:48;;;;;;;36.45;19.33;;;;;;;12.86;73.44;101210.81;4859641;29;20061;-63
2022/10/30 02:08:16;;;;;;;41.60;20.42;;;;;;;12.74;73.94;101220.19;4859920;29;20459;-64
2022/10/30 02:10:45;;;;;;;41.15;21.25;;;;;;;12.68;74.37;101219.97;4858227;29;20049;-62
2022/10/30 02:13:11;;;;;;;46.47;20.00;;;;;;;13.01;73.14;101219.13;4859423;29;20566;-63
2022/10/30 02:15:39;;;;;;;45.83;20.25;;;;;;;12.98;73.17;101219.44;4858952;29;20049;-64
2022/10/30 02:18:06;;;;;;;49.75;21.10;;;;;;;12.77;73.88;101216.34;4859704;29;20409;-64
2022/10/30 02:20:33;;;;;;;46.17;20.42;;;;;;;12.42;75.48;101218.19;4859208;29;20409;-62
2022/10/30 02:23:00;;;;;;;40.30;21.05;;;;;;;12.48;75.55;101205.91;4860821;29;20064;-63
2022/10/30 02:25:27;;;;;;;51.85;20.05;;;;;;;12.55;74.70;101206.94;4859235;29;20069;-63
2022/10/30 02:27:53;;;;;;;48.70;21.45;;;;;;;12.58;74.72;101209.31;4859978;29;20061;-63
2022/10/30 02:30:20;;;;;;;45.63;21.35;;;;;;;12.49;75.12;101199.53;4859012;29;20053;-64
2022/10/30 02:32:46;;;;;;;39.25;19.52;;;;;;;12.59;74.74;101194.84;4859772;29;20053;-63
2022/10/30 02:35:13;;;;;;;36.88;19.73;;;;;;;12.73;73.93;101202.34;4859694;29;20054;-63
2022/10/30 02:37:39;;;;;;;35.35;19.50;;;;;;;12.50;75.03;101201.22;4858953;29;20046;-64
2022/10/30 02:40:09;;;;;;;40.95;19.90;;;;;;;12.69;74.29;101194.72;4859086;29;20050;-64
2022/10/30 02:42:35;;;;;;;40.53;19.90;;;;;;;12.86;73.46;101196.50;4857864;29;20045;-63
2022/10/30 02:45:02;;;;;;;37.25;19.80;;;;;;;12.82;73.41;101197.84;4859381;29;20429;-63
2022/10/30 02:47:29;;;;;;;44.95;20.25;;;;;;;12.89;73.04;101204.25;4859072;29;20049;-63
2022/10/30 02:49:55;;;;;;;40.47;20.42;;;;;;;12.92;72.48;101208.47;4864067;29;20049;-63
2022/10/30 02:52:22;;;;;;;36.08;19.20;;;;;;;12.92;72.78;101206.63;4877812;29;20045;-64
2022/10/30 02:54:48;;;;;;;32.67;19.55;;;;;;;12.81;72.76;101204.25;4877296;29;20049;-64
2022/10/30 02:57:15;;;;;;;38.40;19.17;;;;;;;12.76;72.98;101199.31;4876523;29;20148;-62
2022/10/30 02:59:41;;;;;;;43.58;20.08;;;;;;;12.72;73.43;101197.94;4877377;29;20412;-63
2022/10/30 03:02:08;;;;;;;35.35;18.85;;;;;;;12.79;72.93;101195.47;4877238;29;20080;-62
2022/10/30 03:04:34;;;;;;;40.17;18.83;;;;;;;12.53;74.13;101200.91;4876608;29;20048;-64
2022/10/30 03:07:01;;;;;;;40.72;19.48;;;;;;;12.83;72.76;101202.22;4872212;29;20057;-63
2022/10/30 03:09:27;;;;;;;42.63;19.73;;;;;;;12.77;73.12;101206.41;4877113;29;20049;-62
2022/10/30 03:11:54;;;;;;;38.03;18.73;;;;;;;12.70;72.94;101205.34;4872574;29;20049;-63
2022/10/30 03:14:20;;;;;;;38.40;18.80;;;;;;;12.85;72.76;101209.13;4858674;29;20418;-62
2022/10/30 03:16:47;;;;;;;32.25;18.30;;;;;;;12.85;72.62;101211.81;4859038;29;20072;-64
2022/10/30 03:19:13;;;;;;;43.75;20.33;;;;;;;12.71;73.37;101215.09;4858379;29;20082;-62
2022/10/30 03:21:40;;;;;;;43.92;19.02;;;;;;;12.88;72.40;101218.72;4857682;29;20049;-63
2022/10/30 03:24:07;;;;;;;37.00;18.20;;;;;;;12.61;73.48;101217.91;4855539;29;20050;-69
2022/10/30 03:26:33;;;;;;;43.42;19.98;;;;;;;12.65;73.08;101216.59;4881704;29;20053;-69
2022/10/30 03:28:59;;;;;;;42.60;19.90;;;;;;;12.58;73.51;101217.41;4894733;29;20136;-69
2022/10/30 03:31:26;;;;;;;41.33;19.55;;;;;;;12.45;73.83;101217.00;4894313;29;20045;-70
2022/10/30 03:33:53;;;;;;;35.13;18.33;;;;;;;12.62;73.54;101208.00;4889876;29;20054;-70
2022/10/30 03:36:19;;;;;;;37.17;19.10;;;;;;;12.62;73.65;101202.59;4875439;29;20061;-70
2022/10/30 03:38:46;;;;;;;47.05;20.40;;;;;;;12.40;74.35;101191.41;4867990;29;20049;-62
2022/10/30 03:41:19;;;;;;;42.08;19.00;;;;;;;12.39;74.04;101176.28;5026229;27;20413;-63
2022/10/30 03:43:46;;;;;;;33.78;17.65;;;;;;;12.46;74.19;101181.88;5029856;28;20041;-62
2022/10/30 03:46:12;;;;;;;34.33;18.60;;;;;;;12.11;75.21;101180.19;5021942;28;20456;-61
2022/10/30 03:48:39;;;;;;;41.55;18.73;;;;;;;12.38;74.30;101162.97;5030001;28;20045;-63
2022/10/30 03:51:05;;;;;;;41.95;18.98;;;;;;;12.28;74.76;101152.34;5026354;28;20041;-62
2022/10/30 03:53:32;;;;;;;46.35;18.92;;;;;;;12.10;75.17;101152.41;5024494;28;20466;-62
2022/10/30 03:56:01;;;;;;;36.38;19.13;;;;;;;12.32;74.55;101153.72;5028975;28;20046;-62
2022/10/30 03:58:28;;;;;;;37.92;19.95;;;;;;;12.30;74.71;101154.88;5028500;28;20056;-64
2022/10/30 04:01:03;;;;;;;35.63;19.17;;;;;;;12.19;74.62;101152.47;5029450;28;20038;-62
2022/10/30 04:03:30;;;;;;;40.85;19.38;;;;;;;11.86;76.01;101139.69;5022334;28;20052;-62
2022/10/30 04:05:57;;;;;;;30.60;18.25;;;;;;;12.34;74.20;101146.31;5028418;28;20049;-62
2022/10/30 04:08:23;;;;;;;37.00;17.92;;;;;;;12.72;72.83;101160.25;5018808;28;20052;-61
2022/10/30 04:10:50;;;;;;;34.00;18.70;;;;;;;12.79;72.18;101177.47;5023338;28;20461;-61
2022/10/30 04:13:19;;;;;;;34.70;18.17;;;;;;;12.76;72.07;101193.09;5026645;28;20049;-62
2022/10/30 04:15:49;;;;;;;42.20;18.33;;;;;;;12.85;71.53;101176.81;5041877;28;20822;-61
2022/10/30 04:18:23;;;;;;;43.50;17.70;;;;;;;12.77;71.70;101173.28;5046715;28;21042;-63
2022/10/30 04:20:49;;;;;;;39.45;15.82;;;;;;;12.80;71.73;101164.84;5045801;28;20045;-61
2022/10/30 04:23:18;;;;;;;32.15;16.13;;;;;;;12.97;71.17;101171.13;5045522;28;20049;-63
2022/10/30 04:25:45;;;;;;;35.55;16.98;;;;;;;12.96;70.97;101172.13;5045808;28;20436;-61
2022/10/30 04:28:12;;;;;;;41.25;17.15;;;;;;;13.01;70.82;101173.31;5029151;28;20054;-62
2022/10/30 04:30:39;;;;;;;32.10;16.30;;;;;;;13.05;70.58;101176.53;5026987;28;20042;-62
2022/10/30 04:33:10;;;;;;;35.58;15.57;;;;;;;13.09;70.18;101167.09;5026072;28;20046;-65
2022/10/30 04:35:37;;;;;;;32.42;16.42;;;;;;;13.14;69.97;101180.91;5026536;28;20052;-63
2022/10/30 04:38:09;;;;;;;34.92;16.30;;;;;;;13.18;69.85;101202.97;5026172;28;20412;-63
2022/10/30 04:40:38;;;;;;;29.45;15.68;;;;;;;13.23;69.65;101204.16;5025849;28;20041;-62
2022/10/30 04:43:06;;;;;;;26.50;15.32;;;;;;;13.23;69.65;101200.63;5025971;28;20076;-62
2022/10/30 04:45:33;;;;;;;35.22;16.45;;;;;;;13.23;69.69;101195.25;5025896;28;20041;-62
2022/10/30 04:48:07;;;;;;;28.98;15.52;;;;;;;13.14;69.73;101191.69;5026054;28;20485;-63
2022/10/30 04:50:34;;;;;;;37.35;16.02;;;;;;;13.10;69.99;101195.72;5024647;28;20052;-63
2022/10/30 04:53:03;;;;;;;30.08;16.00;;;;;;;13.13;69.90;101205.34;5011505;28;20042;-64
2022/10/30 04:55:30;;;;;;;42.70;15.10;;;;;;;13.01;70.48;101207.50;5012892;28;20038;-64
2022/10/30 04:57:58;;;;;;;29.17;16.20;;;;;;;12.96;70.64;101199.91;5014080;28;20050;-62
2022/10/30 05:00:26;;;;;;;32.20;15.68;;;;;;;12.97;70.46;101204.31;5013453;28;20557;-62
2022/10/30 05:02:52;;;;;;;32.95;17.33;;;;;;;13.04;70.47;101182.91;5013420;28;20045;-62
2022/10/30 05:05:19;;;;;;;39.05;17.38;;;;;;;13.12;70.06;101182.94;5008674;28;20054;-62
2022/10/30 05:07:46;;;;;;;30.48;17.40;;;;;;;12.91;71.06;101196.88;5012750;28;20096;-62
2022/10/30 05:10:13;;;;;;;33.22;15.50;;;;;;;13.09;70.22;101210.22;5012602;28;20104;-62
2022/10/30 05:12:44;;;;;;;34.90;17.98;;;;;;;13.11;70.13;101195.56;5012139;28;20046;-62
2022/10/30 05:15:12;;;;;;;43.88;17.45;;;;;;;13.09;70.20;101197.56;5012389;28;20129;-63
2022/10/30 05:17:39;;;;;;;42.03;17.73;;;;;;;12.98;70.50;101208.66;5027207;28;20049;-71
2022/10/30 05:20:06;;;;;;;32.70;16.45;;;;;;;13.01;70.26;101194.03;5032381;28;20046;-71
2022/10/30 05:22:33;;;;;;;36.85;17.23;;;;;;;13.02;70.26;101180.38;5031397;28;20049;-71
2022/10/30 05:24:59;;;;;;;38.90;16.23;;;;;;;12.83;71.20;101178.84;5031340;28;20413;-70
2022/10/30 05:27:26;;;;;;;39.95;17.67;;;;;;;12.52;71.73;101174.97;5031883;28;20052;-71
2022/10/30 05:29:52;;;;;;;36.67;16.85;;;;;;;12.52;71.76;101165.09;5021782;28;20050;-71
2022/10/30 05:32:18;;;;;;;34.40;16.35;;;;;;;12.42;72.40;101158.97;5031651;28;20076;-71
2022/10/30 05:34:45;;;;;;;39.30;17.13;;;;;;;12.40;72.82;101153.75;5030672;28;20045;-71
2022/10/30 05:37:11;;;;;;;34.05;15.80;;;;;;;12.66;71.66;101142.09;5031239;28;20061;-71
2022/10/30 05:39:38;;;;;;;36.38;17.70;;;;;;;12.68;71.61;101142.75;5030932;28;20133;-71
2022/10/30 05:42:04;;;;;;;31.80;16.40;;;;;;;12.64;71.48;101126.06;5031387;28;20045;-71
2022/10/30 05:44:36;;;;;;;35.05;16.48;;;;;;;12.76;70.93;101183.16;5031250;28;20465;-71
2022/10/30 05:47:23;;;;;;;34.38;16.27;;;;;;;12.96;70.20;101207.97;5030374;28;20115;-71
2022/10/30 05:49:49;;;;;;;36.70;16.50;;;;;;;12.90;70.52;101197.84;5030672;28;20045;-71
2022/10/30 05:52:15;;;;;;;27.70;15.35;;;;;;;13.05;69.95;101179.22;5032151;28;20053;-71
2022/10/30 05:54:42;;;;;;;41.75;22.40;;;;;;;12.71;71.07;101115.50;5031434;28;20045;-71
2022/10/30 05:57:08;;;;;;;35.65;17.63;;;;;;;12.54;71.69;101097.63;5030134;28;20064;-63
2022/10/30 05:59:35;;;;;;;30.38;15.63;;;;;;;12.68;71.03;101182.28;5030681;28;20048;-65
2022/10/30 06:02:01;;;;;;;28.35;14.30;;;;;;;12.88;70.25;101191.81;5031027;28;20068;-65
2022/10/30 06:04:28;;;;;;;33.67;14.70;;;;;;;12.62;70.83;101175.69;5030207;28;20404;-63
2022/10/30 06:06:54;;;;;;;33.03;14.52;;;;;;;12.46;72.04;101154.97;5029817;28;20053;-65
2022/10/30 06:09:21;;;;;;;34.88;15.80;;;;;;;12.29;72.11;101140.59;5031702;28;20050;-64
2022/10/30 06:11:47;;;;;;;34.45;13.93;;;;;;;12.27;71.48;101145.28;5038439;28;20044;-63
2022/10/30 06:14:14;;;;;;;29.92;13.85;;;;;;;12.50;70.84;101150.09;5031912;28;20489;-64
2022/10/30 06:16:40;;;;;;;29.85;13.85;;;;;;;12.60;70.30;101161.56;5032343;28;20057;-65
2022/10/30 06:19:07;;;;;;;33.90;14.43;;;;;;;12.82;69.47;101165.53;5031628;28;20124;-66
2022/10/30 06:21:36;;;;;;;39.45;13.80;;;;;;;12.74;69.40;101155.59;5020865;28;20045;-64
2022/10/30 06:24:02;;;;;;;30.52;13.35;;;;;;;12.76;69.45;101145.47;5011151;28;20508;-65
2022/10/30 06:26:29;;;;;;;30.13;13.15;;;;;;;12.85;69.15;101140.97;5012525;28;20046;-64
2022/10/30 06:28:55;;;;;;;28.73;13.88;;;;;;;12.82;68.96;101144.81;5011163;28;20045;-63
2022/10/30 06:31:22;;;;;;;37.13;13.93;;;;;;;12.72;69.51;101143.25;5011360;28;20523;-64
2022/10/30 06:33:48;;;;;;;22.70;12.23;;;;;;;12.56;69.49;101138.69;5011074;28;20054;-63
2022/10/30 06:36:16;;;;;;;34.75;13.27;;;;;;;12.45;70.46;101142.47;5024137;28;20405;-64
2022/10/30 06:38:43;;;;;;;37.35;14.38;;;;;;;12.36;70.99;101143.47;5036930;28;20052;-65
2022/10/30 06:41:09;;;;;;;40.13;14.85;;;;;;;12.37;71.08;101145.16;5024250;28;20128;-64
2022/10/30 06:43:36;;;;;;;29.67;14.60;;;;;;;12.45;70.66;101144.34;5031166;28;20225;-63
2022/10/30 06:46:02;;;;;;;35.28;13.43;;;;;;;12.38;71.33;101134.25;5030795;28;20046;-65
2022/10/30 06:48:29;;;;;;;33.28;14.80;;;;;;;12.45;70.69;101139.78;5032753;28;20056;-65
2022/10/30 06:50:57;;;;;;;33.40;13.40;;;;;;;12.49;70.75;101140.34;5030879;28;20465;-64
2022/10/30 06:53:25;;;;;;;34.67;13.82;;;;;;;12.61;70.20;101147.09;5030850;28;20053;-63
2022/10/30 06:55:55;;;;;;;28.98;13.30;;;;;;;12.75;69.79;101159.97;5030965;28;20053;-63
2022/10/30 06:58:25;;;;;;;24.83;11.73;;;;;;;12.81;69.42;101153.09;5029999;28;20068;-64
2022/10/30 07:00:55;;;;;;;25.25;13.32;;;;;;;12.93;69.13;101162.53;5029687;28;20492;-64
2022/10/30 07:03:22;;;;;;;30.65;12.88;;;;;;;12.82;69.04;101155.59;5030142;28;20053;-64
2022/10/30 07:05:48;;;;;;;33.85;13.38;;;;;;;12.60;69.97;101162.41;5029346;28;20056;-63
2022/10/30 07:08:15;;;;;;;33.35;12.48;;;;;;;12.67;70.05;101164.47;5029357;28;20046;-63
2022/10/30 07:10:41;;;;;;;26.85;13.55;;;;;;;12.78;69.46;101161.47;5029531;28;20053;-65
2022/10/30 07:13:08;;;;;;;29.52;13.30;;;;;;;12.59;69.84;101159.84;5019715;28;20045;-65
2022/10/30 07:15:34;;;;;;;27.88;12.98;;;;;;;12.79;69.13;101169.38;5008956;28;20046;-64
2022/10/30 07:18:02;;;;;;;31.85;12.73;;;;;;;12.92;69.41;101168.09;5028054;28;20049;-65
2022/10/30 07:20:31;;;;;;;29.90;12.23;;;;;;;13.32;67.63;101167.31;5030171;28;20051;-66
2022/10/30 07:22:59;;;;;;;25.08;13.18;;;;;;;13.47;67.26;101176.41;5030929;28;20046;-65
2022/10/30 07:25:25;;;;;;;22.35;12.07;;;;;;;13.45;67.05;101186.50;5030027;28;20049;-67
2022/10/30 07:27:54;;;;;;;33.15;12.18;;;;;;;13.69;66.40;101192.91;5027703;28;20053;-66
2022/10/30 07:30:24;;;;;;;26.60;11.45;;;;;;;13.88;65.46;101192.59;5033600;28;20049;-66
2022/10/30 07:32:59;;;;;;;30.48;13.45;;;;;;;13.68;66.04;101199.31;5033616;28;20045;-67
2022/10/30 07:35:27;;;;;;;27.83;13.27;;;;;;;13.79;66.05;101197.16;5033325;28;20041;-66
2022/10/30 07:37:54;;;;;;;23.63;12.50;;;;;;;13.78;65.77;101200.88;5026613;28;20057;-67
2022/10/30 07:40:21;;;;;;;31.25;12.52;;;;;;;13.70;65.96;101191.88;5043798;28;20049;-67
2022/10/30 07:42:48;;;;;;;29.20;12.77;;;;;;;13.89;65.45;101190.75;5032411;28;20511;-67
2022/10/30 07:45:14;;;;;;;33.63;12.48;;;;;;;13.82;65.48;101199.50;5033154;28;20053;-67
2022/10/30 07:47:42;;;;;;;42.88;15.55;;;;;;;13.77;65.49;101198.34;5033016;28;20511;-66
2022/10/30 07:50:09;;;;;;;28.35;13.93;;;;;;;13.99;64.93;101188.72;5029740;28;20060;-67
2022/10/30 07:52:36;;;;;;;26.90;12.43;;;;;;;13.84;65.42;101185.88;5032785;28;20045;-66
2022/10/30 07:55:03;;;;;;;33.42;14.32;;;;;;;14.11;64.47;101181.91;5033902;28;20050;-66
2022/10/30 07:57:33;;;;;;;24.17;12.73;;;;;;;14.35;63.84;101191.81;5033914;28;20052;-67
2022/10/30 08:00:00;;;;;;;31.45;13.40;;;;;;;14.21;63.93;101190.66;5033106;28;20492;-67
2022/10/30 08:02:30;;;;;;;27.52;13.70;;;;;;;14.13;64.24;101200.66;5034119;28;20045;-67
2022/10/30 08:04:57;;;;;;;26.10;11.20;;;;;;;14.02;63.95;101193.75;5037618;28;20049;-67
2022/10/30 08:07:23;;;;;;;29.10;12.27;;;;;;;14.37;63.45;101197.03;5033157;28;20071;-66
2022/10/30 08:09:50;;;;;;;27.83;11.65;;;;;;;14.21;64.17;101198.75;5033312;28;20060;-67
2022/10/30 08:12:16;;;;;;;24.00;10.80;;;;;;;14.53;63.15;101195.13;5033591;28;20053;-65
2022/10/30 08:14:43;;;;;;;26.98;11.52;;;;;;;14.79;62.48;101194.03;5032744;28;20053;-66
2022/10/30 08:17:09;;;;;;;32.20;11.35;;;;;;;14.63;62.87;101200.31;5032175;28;20487;-66
2022/10/30 08:19:36;;;;;;;25.10;11.50;;;;;;;15.21;61.38;101200.88;5031945;28;20045;-66
2022/10/30 08:22:02;;;;;;;25.30;11.02;;;;;;;15.50;60.53;101211.00;5033452;28;20049;-66
2022/10/30 08:24:29;;;;;;;27.00;10.85;;;;;;;15.80;59.50;101197.56;5030787;28;20053;-63
2022/10/30 08:26:55;;;;;;;24.92;11.20;;;;;;;15.73;59.11;101196.63;5030352;28;20068;-63
2022/10/30 08:29:22;;;;;;;20.88;9.82;;;;;;;16.02;58.58;101196.69;5032396;28;20064;-63
2022/10/30 08:31:49;;;;;;;23.20;10.82;;;;;;;15.70;58.66;101206.78;5032028;28;20052;-63
2022/10/30 08:34:16;;;;;;;24.40;9.77;;;;;;;16.00;58.11;101209.56;5031850;28;20103;-63
2022/10/30 08:36:42;;;;;;;26.65;9.77;;;;;;;16.63;56.08;101196.53;5032779;28;20052;-63
2022/10/30 08:39:15;;;;;;;25.40;9.77;;;;;;;16.88;55.75;101205.19;5030867;28;20049;-63
2022/10/30 08:41:42;;;;;;;30.42;10.77;;;;;;;16.95;55.24;101203.38;5031181;28;20041;-63
2022/10/30 08:44:08;;;;;;;24.42;10.20;;;;;;;17.40;54.12;101206.81;5023178;28;20053;-63
2022/10/30 08:46:35;;;;;;;22.98;9.07;;;;;;;17.69;53.23;101194.16;5023035;28;20053;-64
2022/10/30 08:49:01;;;;;;;23.48;11.07;;;;;;;17.70;53.24;101198.53;5013415;28;20052;-63
2022/10/30 08:51:31;;;;;;;29.13;8.65;;;;;;;17.74;52.59;101202.53;5013061;28;20053;-64
2022/10/30 08:53:58;;;;;;;32.85;9.65;;;;;;;17.76;52.72;101201.31;5012040;28;20049;-63
2022/10/30 08:56:25;;;;;;;18.30;8.05;;;;;;;17.79;52.91;101197.38;5012360;28;20436;-63
2022/10/30 08:58:52;;;;;;;24.15;8.45;;;;;;;17.71;52.34;101201.06;5011800;28;20061;-64
2022/10/30 09:01:18;;;;;;;20.25;7.53;;;;;;;18.00;52.00;101199.22;5012051;28;20061;-63
2022/10/30 09:03:46;;;;;;;17.42;7.45;;;;;;;18.20;51.40;101197.50;5025253;28;20049;-63
2022/10/30 09:06:13;;;;;;;22.13;7.80;;;;;;;18.29;50.89;101199.00;5025793;28;20492;-63
2022/10/30 09:08:39;;;;;;;24.02;8.10;;;;;;;18.22;50.63;101189.16;5031205;28;20046;-63
2022/10/30 09:11:06;;;;;;;24.17;9.27;;;;;;;18.16;50.81;101200.78;5032051;28;20045;-64
2022/10/30 09:13:32;;;;;;;26.73;9.27;;;;;;;18.37;50.69;101202.59;5031989;28;20046;-63
2022/10/30 09:16:00;;;;;;;24.60;7.45;;;;;;;18.61;50.14;101201.25;5032060;28;20056;-63
2022/10/30 09:18:27;;;;;;;17.08;7.35;;;;;;;18.79;49.43;101199.69;5031304;28;20052;-63
2022/10/30 09:20:53;;;;;;;29.27;8.00;;;;;;;19.11;48.71;101199.19;5031901;28;20527;-63
2022/10/30 09:23:20;;;;;;;23.80;10.68;;;;;;;19.30;48.60;101203.81;5035710;28;20120;-63
2022/10/30 09:25:47;;;;;;;52.85;16.65;;;;;;;19.56;47.60;101194.03;5030882;28;20404;-64
2022/10/30 09:28:13;;;;;;;17.10;9.10;;;;;;;19.71;47.29;101194.69;5031605;28;20597;-64
2022/10/30 09:30:40;;;;;;;25.30;8.68;;;;;;;20.17;45.79;101183.75;5031199;28;20041;-63
2022/10/30 09:33:07;;;;;;;16.02;7.50;;;;;;;20.30;45.08;101180.16;5031387;28;20045;-65
2022/10/30 09:35:35;;;;;;;20.63;7.53;;;;;;;20.95;44.10;101179.31;5022453;28;20049;-62
2022/10/30 09:38:02;;;;;;;27.33;6.85;;;;;;;21.21;43.42;101176.44;5031084;28;20076;-63
2022/10/30 09:41:02;;;;;;;22.98;7.45;;;;;;;21.28;43.11;101179.13;5026298;28;20065;-63
2022/10/30 09:43:47;;;;;;;18.08;6.95;;;;;;;21.62;42.57;101180.56;5030376;28;20048;-64
2022/10/30 09:46:14;;;;;;;15.90;6.47;;;;;;;21.89;41.29;101181.19;5030161;28;20527;-64
2022/10/30 09:48:53;;;;;;;19.50;6.57;;;;;;;22.16;41.28;101181.78;5014773;28;20053;-65
2022/10/30 09:51:30;;;;;;;25.35;5.93;;;;;;;22.29;41.07;101176.16;5031395;28;20520;-67
2022/10/30 09:54:11;;;;;;;15.95;5.72;;;;;;;21.34;43.52;101184.53;5029737;28;20515;-66
2022/10/30 09:56:44;;;;;;;18.88;6.57;;;;;;;21.72;42.26;101190.97;5029127;28;20070;-67
2022/10/30 09:59:25;;;;;;;26.85;6.68;;;;;;;20.84;44.05;101181.66;5030411;28;20045;-72
2022/10/30 10:01:54;;;;;;;28.05;7.32;;;;;;;20.75;44.04;101195.75;5030966;28;20053;-69
2022/10/30 10:04:43;;;;;;;17.25;5.80;;;;;;;20.59;44.52;101188.88;5024307;28;20053;-71
2022/10/30 10:07:19;;;;;;;16.00;5.85;;;;;;;21.23;42.72;101196.16;5030771;28;20038;-70
2022/10/30 10:09:50;;;;;;;18.10;5.35;;;;;;;20.96;43.64;101191.88;5031492;28;20052;-70
2022/10/30 10:12:30;;;;;;;23.92;5.93;;;;;;;21.64;41.63;101188.53;5032974;28;20080;-72
2022/10/30 10:15:03;;;;;;;18.97;5.30;;;;;;;22.07;41.18;101185.84;5032471;28;20041;-72
2022/10/30 10:17:37;;;;;;;20.58;6.07;;;;;;;22.55;39.69;101187.88;5036575;28;20041;-71
2022/10/30 10:20:10;;;;;;;17.10;5.93;;;;;;;22.04;41.05;101189.84;5024403;28;20047;-72
2022/10/30 10:22:48;;;;;;;18.38;5.63;;;;;;;21.62;41.60;101183.28;5031033;28;20052;-71
2022/10/30 10:25:18;;;;;;;22.13;6.00;;;;;;;21.80;41.57;101194.28;5031548;28;20049;-70
2022/10/30 10:28:31;;;;;;;20.80;6.00;;;;;;;22.11;40.60;101197.16;5031170;28;20045;-72
2022/10/30 10:31:11;;;;;;;14.63;5.95;;;;;;;21.94;40.67;101194.16;4988981;28;20104;-72
2022/10/30 10:34:29;;;;;;;15.27;5.82;;;;;;;21.69;40.88;101194.97;4988087;28;20043;-72
2022/10/30 10:37:01;;;;;;;17.17;5.05;;;;;;;21.67;41.60;101197.13;4930601;29;20048;-72
2022/10/30 10:40:02;;;;;;;15.35;5.47;;;;;;;21.91;40.68;101191.88;4930346;29;20050;-72
2022/10/30 10:42:46;;;;;;;21.70;6.93;;;;;;;21.29;41.58;101198.03;4930726;29;20048;-71
2022/10/30 10:45:21;;;;;;;18.70;6.10;;;;;;;21.30;41.60;101196.97;4929955;29;20051;-71
2022/10/30 10:48:18;;;;;;;21.63;5.93;;;;;;;21.48;41.22;101185.28;4929948;29;20397;-71
2022/10/30 10:50:57;;;;;;;13.93;5.63;;;;;;;21.60;40.74;101183.50;4929168;29;20062;-72
2022/10/30 10:53:29;;;;;;;18.13;5.85;;;;;;;21.47;41.16;101177.31;4930439;29;20059;-72
2022/10/30 10:55:58;;;;;;;21.95;5.85;;;;;;;21.51;41.22;101173.91;4930027;29;20043;-74
2022/10/30 10:58:55;;;;;;;15.98;5.35;;;;;;;22.10;39.67;101171.75;4918992;29;20060;-74
2022/10/30 11:01:47;;;;;;;28.55;8.05;;;;;;;21.80;40.70;101175.16;4911472;29;20126;-74
2022/10/30 11:04:35;;;;;;;24.83;8.27;;;;;;;21.64;40.34;101167.53;4917609;28;20063;-73
2022/10/30 11:07:18;;;;;;;17.08;7.18;;;;;;;21.70;40.32;101171.25;4949540;28;20054;-74
2022/10/30 11:09:50;;;;;;;24.77;8.30;;;;;;;22.04;39.71;101167.16;4954958;28;20478;-73
2022/10/30 11:12:21;;;;;;;18.75;7.10;;;;;;;21.99;39.69;101162.38;5010405;28;20065;-74
2022/10/30 11:14:47;;;;;;;31.50;6.70;;;;;;;22.43;39.07;101170.53;5010368;28;20113;-73
2022/10/30 11:17:41;;;;;;;19.38;6.85;;;;;;;21.80;39.88;101172.44;5010130;28;20437;-74
2022/10/30 11:20:19;;;;;;;22.42;6.30;;;;;;;21.60;40.39;101166.31;5009551;28;20046;-72
2022/10/30 11:22:50;;;;;;;24.77;5.85;;;;;;;21.36;40.85;101167.97;5009578;28;20377;-73
2022/10/30 11:25:22;;;;;;;30.60;5.70;;;;;;;21.28;40.65;101173.66;5014264;28;20054;-73
2022/10/30 11:27:58;;;;;;;19.52;5.65;;;;;;;21.19;40.63;101159.47;5029623;28;20120;-72
2022/10/30 11:30:27;;;;;;;17.88;5.47;;;;;;;21.80;39.32;101171.59;5029465;28;20046;-74